Time;durP1;ratioP1;P1;durP2;ratioP2;P2;SDS_P1;SDS_P2;PMS_P1;PMS_P2;Temp;Humidity;BMP_temperature;BMP_pressure;BME280_temperature;BME280_humidity;BME280_pressure;Samples;Min_cycle;Max_cycle;Signal;HPM_P1;HPM_P2
2022/01/23 00:00:35;;;;;;;3.80;0.90;;;;;;;-3.03;73.11;99409.47;1741873;80;21432;-51
2022/01/23 00:03:06;;;;;;;2.03;1.00;;;;;;;-3.05;73.17;99414.28;1774254;78;20978;-50
2022/01/23 00:07:14;;;;;;;3.70;1.30;;;;;;;-3.02;73.24;99417.38;1789726;78;26691;-52
2022/01/23 00:09:41;;;;;;;4.90;1.10;;;;;;;-3.04;73.25;99420.43;1765054;79;20996;-51
2022/01/23 00:12:20;;;;;;;6.70;1.87;;;;;;;-3.03;73.21;99418.68;1769893;79;20988;-51
2022/01/23 00:17:34;;;;;;;3.10;1.00;;;;;;;-3.00;73.31;99422.64;1766289;79;20889;-50
2022/01/23 00:20:06;;;;;;;2.80;1.00;;;;;;;-2.98;73.29;99424.41;1768875;79;20946;-51
2022/01/23 00:22:41;;;;;;;3.13;1.13;;;;;;;-2.97;73.33;99418.67;1762829;79;21365;-51
2022/01/23 00:30:35;;;;;;;;;;;;;;;-3.00;73.22;99435.81;1771853;79;20914;-51
2022/01/23 00:33:05;;;;;;;2.70;0.90;;;;;;;-2.98;73.24;99436.70;1769258;79;20521;-51
2022/01/23 00:35:32;;;;;;;4.30;1.10;;;;;;;-3.01;73.15;99432.73;1776070;79;20950;-50
2022/01/23 00:37:59;;;;;;;3.03;1.00;;;;;;;-3.02;73.16;99438.88;1772712;79;21147;-51
2022/01/23 00:40:27;;;;;;;2.53;1.13;;;;;;;-3.02;73.14;99433.61;1764412;79;21056;-51
2022/01/23 00:42:54;;;;;;;6.00;1.13;;;;;;;-3.00;73.17;99430.54;1763815;79;21092;-51
2022/01/23 00:45:33;;;;;;;2.10;1.20;;;;;;;-2.98;73.13;99430.11;1764416;79;21495;-51
2022/01/23 00:48:06;;;;;;;2.30;1.20;;;;;;;-2.98;73.07;99423.53;1761916;80;21335;-51
2022/01/23 00:50:37;;;;;;;2.07;1.10;;;;;;;-2.97;72.99;99424.82;1768951;79;21096;-52
2022/01/23 00:53:05;;;;;;;3.57;1.00;;;;;;;-2.98;72.92;99428.36;1719297;81;20984;-50
2022/01/23 00:55:31;;;;;;;5.77;1.80;;;;;;;-3.00;72.89;99430.54;1715637;81;22347;-49
2022/01/23 00:57:58;;;;;;;3.67;1.20;;;;;;;-3.00;72.84;99431.42;1701669;83;21079;-51
2022/01/23 01:00:24;;;;;;;2.83;1.30;;;;;;;-3.01;72.83;99427.47;1734948;81;21168;-51
2022/01/23 01:02:51;;;;;;;2.50;1.30;;;;;;;-3.03;72.85;99427.89;1730406;81;21214;-50
2022/01/23 01:05:17;;;;;;;2.33;1.47;;;;;;;-3.06;72.87;99421.73;1732213;81;21131;-50
2022/01/23 01:07:44;;;;;;;3.03;1.53;;;;;;;-3.06;72.97;99424.81;1721211;81;21364;-51
2022/01/23 01:10:18;;;;;;;6.40;2.53;;;;;;;-3.04;72.97;99420.43;1756841;80;21046;-51
2022/01/23 01:12:43;;;;;;;3.80;1.73;;;;;;;-3.03;72.92;99423.52;1756095;80;21533;-51
2022/01/23 01:15:27;;;;;;;3.83;2.13;;;;;;;-3.01;72.92;99416.94;1758870;80;21092;-51
2022/01/23 01:30:11;;;;;;;4.93;2.37;;;;;;;-3.00;72.96;99429.23;1754532;80;21065;-52
2022/01/23 01:31:21;;;;;;;4.20;1.43;;;;;;;-2.97;73.12;99418.67;1753904;80;21093;-51
2022/01/23 01:33:54;;;;;;;4.60;1.30;;;;;;;-2.98;73.12;99418.27;1758589;80;21602;-52
2022/01/23 01:36:22;;;;;;;5.03;1.90;;;;;;;-3.01;73.05;99415.62;1755132;80;21064;-51
2022/01/23 01:38:45;;;;;;;6.03;1.73;;;;;;;-3.01;73.24;99424.83;1756713;80;21114;-51
2022/01/23 01:41:14;;;;;;;3.80;1.37;;;;;;;-3.02;73.19;99425.27;1761708;80;22075;-51
2022/01/23 01:43:41;;;;;;;4.93;2.03;;;;;;;-3.03;73.23;99432.73;1757312;80;21105;-51
2022/01/23 01:46:07;;;;;;;3.33;1.33;;;;;;;-3.05;73.37;99434.03;1750808;80;21096;-51
2022/01/23 01:48:36;;;;;;;4.10;1.60;;;;;;;-3.03;73.44;99430.53;1754724;80;21050;-51
2022/01/23 01:51:06;;;;;;;3.90;2.00;;;;;;;-3.02;73.50;99436.23;1755398;80;21137;-52
2022/01/23 01:53:33;;;;;;;6.57;2.33;;;;;;;-3.02;73.59;99435.80;1762198;80;23274;-50
2022/01/23 01:56:00;;;;;;;5.17;2.03;;;;;;;-3.00;73.65;99445.91;1758967;80;21059;-50
2022/01/23 02:01:06;;;;;;;6.50;2.08;;;;;;;-2.96;73.69;99446.77;1733798;80;21080;-50
2022/01/23 02:08:50;;;;;;;2.87;1.47;;;;;;;-2.93;73.86;99449.42;1754048;80;21089;-51
2022/01/23 02:11:28;;;;;;;3.37;1.27;;;;;;;-2.93;73.83;99461.27;1760061;80;21062;-51
2022/01/23 02:14:10;;;;;;;3.33;1.67;;;;;;;-2.93;73.76;99456.88;1726543;80;21085;-50
2022/01/23 02:24:22;;;;;;;2.63;1.60;;;;;;;-2.97;73.68;99456.42;1720593;80;21030;-51
2022/01/23 02:51:53;;;;;;;8.50;3.47;;;;;;;-3.26;73.48;99500.26;1760952;80;20992;-51
2022/01/23 02:56:48;;;;;;;5.53;2.50;;;;;;;-3.27;73.67;99504.64;1756294;80;21089;-51
2022/01/23 02:59:21;;;;;;;6.40;2.40;;;;;;;-3.25;73.82;99495.44;1759130;80;21087;-52
2022/01/23 03:04:51;;;;;;;8.70;3.57;;;;;;;-3.18;74.09;99498.52;1757926;80;21523;-51
2022/01/23 03:07:38;;;;;;;6.43;2.63;;;;;;;-3.14;74.15;99501.16;1756559;80;20939;-51
2022/01/23 03:10:04;;;;;;;8.47;3.03;;;;;;;-3.09;74.18;99497.23;1756292;80;20932;-52
2022/01/23 03:15:04;;;;;;;7.10;3.20;;;;;;;-3.01;74.23;99504.71;1721770;80;21393;-51
2022/01/23 03:28:20;;;;;;;8.87;3.97;;;;;;;-2.91;74.18;99523.61;1763649;80;20906;-51
2022/01/23 03:33:12;;;;;;;8.87;3.50;;;;;;;-2.93;74.03;99524.47;1704201;80;20910;-51
2022/01/23 03:35:38;;;;;;;10.33;3.53;;;;;;;-2.93;74.03;99524.47;1761401;80;21424;-50
2022/01/23 03:38:04;;;;;;;9.50;3.90;;;;;;;-2.94;73.93;99531.49;1757654;80;21109;-51
2022/01/23 03:40:31;;;;;;;7.47;3.57;;;;;;;-2.96;73.85;99526.66;1760388;80;22031;-52
2022/01/23 03:43:08;;;;;;;6.47;2.57;;;;;;;-2.97;73.99;99535.42;1758547;80;21057;-51
2022/01/23 03:50:40;;;;;;;4.93;2.03;;;;;;;-3.00;74.21;99550.36;1741724;80;21700;-49
2022/01/23 03:53:08;;;;;;;5.63;2.23;;;;;;;-2.97;74.32;99550.34;1757016;80;21535;-51
2022/01/23 03:55:35;;;;;;;4.77;2.23;;;;;;;-2.99;74.29;99556.07;1756092;80;21077;-51
2022/01/23 03:58:01;;;;;;;4.47;2.00;;;;;;;-3.01;74.51;99556.50;1757451;80;20998;-51
2022/01/23 04:00:28;;;;;;;3.50;1.47;;;;;;;-3.01;74.55;99563.08;1758870;80;21092;-50
2022/01/23 04:02:56;;;;;;;3.93;2.00;;;;;;;-3.02;74.69;99563.95;1756005;80;21148;-50
2022/01/23 04:05:25;;;;;;;5.53;1.90;;;;;;;-3.05;74.73;99569.64;1755048;80;21706;-51
2022/01/23 04:07:52;;;;;;;4.20;2.10;;;;;;;-3.06;74.91;99574.89;1750976;80;21079;-50
2022/01/23 04:10:21;;;;;;;7.23;2.60;;;;;;;-3.06;75.03;99575.78;1750942;80;21091;-50
2022/01/23 04:13:14;;;;;;;5.93;3.00;;;;;;;-3.10;75.12;99584.56;1713809;82;21087;-50
2022/01/23 04:15:41;;;;;;;7.87;3.80;;;;;;;-3.16;75.36;99580.59;1744646;80;21120;-49
2022/01/23 04:20:44;;;;;;;5.77;3.50;;;;;;;-3.23;75.62;99599.00;1750152;80;21088;-50
2022/01/23 04:34:17;;;;;;;20.62;7.67;;;;;;;-3.38;75.81;99627.41;1752567;80;21074;-51
2022/01/23 05:01:21;;;;;;;8.60;3.10;;;;;;;-3.72;74.85;99672.36;1752908;80;21083;-50
2022/01/23 05:07:00;;;;;;;10.87;4.77;;;;;;;-3.83;74.72;99689.83;1747454;80;21054;-50
2022/01/23 05:09:27;;;;;;;8.47;3.90;;;;;;;-3.88;75.01;99696.78;1745852;80;21511;-51
2022/01/23 05:11:59;;;;;;;7.40;1.83;;;;;;;-3.89;75.04;99706.42;1748831;80;21212;-50
2022/01/23 05:14:49;;;;;;;5.53;2.30;;;;;;;-3.93;75.25;99707.28;1747346;80;21120;-50
2022/01/23 05:16:56;;;;;;;4.23;2.37;;;;;;;-3.95;75.38;99711.63;1742037;80;21064;-51
2022/01/23 05:19:22;;;;;;;3.13;1.60;;;;;;;-3.93;75.36;99711.65;1752000;80;21029;-50
2022/01/23 05:22:03;;;;;;;7.43;2.33;;;;;;;-3.95;75.39;99715.58;1750331;80;21156;-49
2022/01/23 05:24:21;;;;;;;3.47;1.93;;;;;;;-3.95;75.46;99722.58;1749528;80;21491;-51
2022/01/23 05:26:46;;;;;;;6.73;2.70;;;;;;;-3.95;75.48;99717.33;1756485;80;21093;-50
2022/01/23 05:29:13;;;;;;;6.80;2.83;;;;;;;-3.95;75.46;99719.52;1749830;80;21054;-51
2022/01/23 05:31:40;;;;;;;9.27;3.57;;;;;;;-3.97;75.29;99726.50;1748207;80;21148;-50
2022/01/23 05:34:08;;;;;;;4.90;2.70;;;;;;;-4.05;74.82;99731.23;1750950;80;21140;-51
2022/01/23 05:36:35;;;;;;;7.20;3.37;;;;;;;-4.11;75.12;99737.33;1746498;80;21698;-51
2022/01/23 05:39:02;;;;;;;6.03;2.47;;;;;;;-4.18;74.82;99745.14;1749691;80;21071;-51
2022/01/23 05:41:28;;;;;;;7.97;2.80;;;;;;;-4.25;74.91;99755.56;1753869;80;21049;-49
2022/01/23 05:43:55;;;;;;;8.87;3.07;;;;;;;-4.31;75.04;99754.63;1753641;80;21053;-50
2022/01/23 05:46:22;;;;;;;5.70;2.53;;;;;;;-4.36;75.10;99761.59;1745698;80;21132;-50
2022/01/23 05:48:53;;;;;;;7.00;2.93;;;;;;;-4.39;75.30;99759.80;1747282;80;21191;-49
2022/01/23 05:51:21;;;;;;;6.60;2.70;;;;;;;-4.36;75.36;99772.98;1749934;80;21497;-51
2022/01/23 05:54:03;;;;;;;8.27;3.47;;;;;;;-4.36;75.31;99775.61;1752866;80;21013;-49
2022/01/23 05:56:50;;;;;;;8.20;3.37;;;;;;;-4.34;75.38;99779.58;1663491;84;21543;-49
2022/01/23 05:59:30;;;;;;;8.23;3.00;;;;;;;-4.29;75.36;99784.44;1615321;84;21581;-51
2022/01/23 06:01:57;;;;;;;8.13;3.53;;;;;;;-4.30;75.08;99791.44;1700951;80;21101;-50
2022/01/23 06:04:28;;;;;;;11.03;4.20;;;;;;;-4.39;74.72;99798.33;1751322;80;21385;-50
2022/01/23 06:06:58;;;;;;;7.47;3.30;;;;;;;-4.49;74.99;99800.38;1753551;80;20919;-50
2022/01/23 06:09:26;;;;;;;7.93;3.57;;;;;;;-4.51;75.22;99804.77;1756112;80;20980;-49
2022/01/23 06:11:52;;;;;;;7.27;3.33;;;;;;;-4.52;75.15;99805.20;1749398;80;21141;-50
2022/01/23 06:14:20;;;;;;;10.93;3.87;;;;;;;-4.54;75.13;99810.85;1754090;80;21414;-50
2022/01/23 06:16:46;;;;;;;10.57;4.27;;;;;;;-4.58;75.08;99814.28;1751521;80;20991;-49
2022/01/23 06:19:34;;;;;;;8.03;2.83;;;;;;;-4.64;75.12;99820.34;1680675;83;21073;-48
2022/01/23 06:22:19;;;;;;;10.13;3.70;;;;;;;-4.65;75.21;99825.15;1681575;83;20948;-50
2022/01/23 06:24:48;;;;;;;8.37;3.63;;;;;;;-4.64;75.01;99840.05;1714104;80;21064;-50
2022/01/23 06:27:28;;;;;;;10.37;3.73;;;;;;;-4.68;74.84;99838.23;1749106;80;21035;-49
2022/01/23 06:29:55;;;;;;;9.37;4.03;;;;;;;-4.75;75.24;99847.31;1751571;80;21346;-51
2022/01/23 06:32:22;;;;;;;11.33;3.90;;;;;;;-4.77;75.52;99849.06;1753852;80;21439;-51
2022/01/23 06:34:48;;;;;;;13.80;5.20;;;;;;;-4.75;75.54;99852.56;1752699;80;21659;-51
2022/01/23 06:37:14;;;;;;;10.53;5.13;;;;;;;-4.75;75.42;99853.88;1753076;80;21100;-51
2022/01/23 06:39:40;;;;;;;10.80;4.93;;;;;;;-4.76;75.40;99851.69;1746666;80;21006;-51
2022/01/23 06:42:09;;;;;;;11.57;4.80;;;;;;;-4.74;75.47;99865.72;1749357;80;21055;-51
2022/01/23 06:44:37;;;;;;;13.10;5.33;;;;;;;-4.69;75.31;99868.01;1734875;80;21031;-51
2022/01/23 06:47:09;;;;;;;12.20;5.27;;;;;;;-4.71;75.05;99865.78;1752019;80;21043;-51
2022/01/23 06:49:36;;;;;;;15.37;6.50;;;;;;;-4.71;75.15;99863.16;1753838;80;21157;-51
2022/01/23 06:52:03;;;;;;;13.07;6.10;;;;;;;-4.68;75.25;99869.74;1741541;80;20981;-51
2022/01/23 06:54:30;;;;;;;9.57;5.50;;;;;;;-4.66;75.03;99874.59;1756437;80;20986;-50
2022/01/23 06:56:58;;;;;;;8.47;4.60;;;;;;;-4.63;75.13;99882.96;1753239;80;20919;-51
2022/01/23 06:59:25;;;;;;;9.67;4.73;;;;;;;-4.58;74.93;99887.84;1751338;80;21345;-50
2022/01/23 07:01:53;;;;;;;11.47;5.30;;;;;;;-4.56;74.92;99887.44;1748593;80;21145;-50
2022/01/23 07:04:31;;;;;;;14.37;5.70;;;;;;;-4.50;74.89;99888.83;1745665;80;21655;-50
2022/01/23 07:07:09;;;;;;;10.97;5.13;;;;;;;-4.44;74.76;99898.56;1725134;80;21113;-51
2022/01/23 07:09:43;;;;;;;10.03;5.30;;;;;;;-4.40;74.55;99913.48;1723094;80;21053;-51
2022/01/23 07:12:11;;;;;;;14.27;5.23;;;;;;;-4.39;74.53;99912.63;1723674;80;21124;-51
2022/01/23 07:14:54;;;;;;;12.80;5.73;;;;;;;-4.35;74.41;99915.77;1725303;80;21328;-51
2022/01/23 07:17:42;;;;;;;15.20;6.70;;;;;;;-4.37;74.14;99919.69;1731210;80;21052;-51
2022/01/23 07:20:22;;;;;;;11.57;5.70;;;;;;;-4.39;74.09;99933.66;1727762;80;21424;-49
2022/01/23 07:22:49;;;;;;;12.40;6.33;;;;;;;-4.40;74.11;99930.56;1731238;80;21609;-51
2022/01/23 07:25:16;;;;;;;13.33;5.97;;;;;;;-4.38;74.20;99941.99;1722805;80;21107;-51
2022/01/23 07:27:50;;;;;;;12.03;6.10;;;;;;;-4.36;74.04;99944.22;1725117;80;22168;-51
2022/01/23 07:33:00;;;;;;;10.87;6.10;;;;;;;-4.32;74.03;99956.09;1730403;80;21085;-50
2022/01/23 07:35:26;;;;;;;16.00;6.80;;;;;;;-4.27;74.05;99962.75;1729824;80;21022;-51
2022/01/23 07:37:53;;;;;;;14.77;7.10;;;;;;;-4.25;73.74;99957.94;1731109;80;21123;-50
2022/01/23 07:40:19;;;;;;;24.17;9.57;;;;;;;-4.23;73.51;99966.73;1731178;80;21131;-51
2022/01/23 07:42:47;;;;;;;16.23;6.87;;;;;;;-4.23;73.37;99969.80;1732006;80;21068;-50
2022/01/23 07:45:32;;;;;;;13.05;6.25;;;;;;;-4.26;73.17;99960.58;1732763;80;22546;-50
2022/01/23 07:48:04;;;;;;;14.23;6.70;;;;;;;-4.30;73.33;99974.09;1697596;82;21121;-49
2022/01/23 07:50:38;;;;;;;11.17;5.73;;;;;;;-4.28;73.37;99981.58;1731836;80;21354;-50
2022/01/23 07:53:06;;;;;;;11.30;5.50;;;;;;;-4.27;73.40;99991.23;1735915;80;21159;-51
2022/01/23 07:55:40;;;;;;;14.05;6.20;;;;;;;-4.26;73.26;99988.17;1729545;80;21613;-51
2022/01/23 07:58:15;;;;;;;17.05;6.70;;;;;;;-4.25;72.91;99999.11;1725462;80;21136;-51
2022/01/23 08:01:00;;;;;;;16.63;7.30;;;;;;;-4.23;73.12;100005.28;1738367;80;21041;-49
2022/01/23 08:03:27;;;;;;;12.57;6.07;;;;;;;-4.23;72.88;99997.39;1725131;80;21341;-49
2022/01/23 08:06:07;;;;;;;15.10;6.07;;;;;;;-4.23;73.11;99999.59;1729660;80;21129;-50
2022/01/23 08:08:43;;;;;;;15.40;6.90;;;;;;;-4.16;73.18;100011.08;1732711;80;21540;-50
2022/01/23 08:11:11;;;;;;;12.87;6.17;;;;;;;-4.11;72.99;100006.79;1733393;80;21616;-49
2022/01/23 08:13:38;;;;;;;13.87;6.33;;;;;;;-4.06;72.98;100006.41;1756302;80;21022;-50
2022/01/23 08:16:05;;;;;;;12.53;6.17;;;;;;;-4.00;72.92;100020.09;1755793;80;21144;-50
2022/01/23 08:18:32;;;;;;;15.10;6.50;;;;;;;-3.95;72.91;100020.60;1755202;80;21137;-51
2022/01/23 08:20:58;;;;;;;15.37;6.30;;;;;;;-3.92;72.93;100019.77;1758893;80;21050;-50
2022/01/23 08:23:24;;;;;;;15.33;7.20;;;;;;;-3.89;72.73;100032.94;1761665;80;21046;-50
2022/01/23 08:25:50;;;;;;;15.83;6.53;;;;;;;-3.85;72.94;100033.45;1758357;80;21092;-50
2022/01/23 08:28:17;;;;;;;20.93;8.80;;;;;;;-3.82;72.56;100046.19;1755360;80;21129;-50
2022/01/23 08:30:43;;;;;;;14.70;7.73;;;;;;;-3.82;72.80;100047.51;1758524;80;21219;-50
2022/01/23 08:33:09;;;;;;;13.80;7.13;;;;;;;-3.73;72.87;100068.23;1759841;80;21292;-50
2022/01/23 08:35:36;;;;;;;16.50;9.10;;;;;;;-3.68;72.86;100081.92;1756956;80;21602;-52
2022/01/23 08:38:02;;;;;;;23.50;12.00;;;;;;;-3.66;72.67;100086.77;1766595;80;20895;-50
2022/01/23 08:43:12;;;;;;;20.57;10.63;;;;;;;-3.66;72.84;100095.09;1757534;80;21288;-51
2022/01/23 08:45:39;;;;;;;20.47;8.57;;;;;;;-3.72;72.80;100093.67;1758407;80;21057;-51
2022/01/23 08:48:06;;;;;;;15.73;8.10;;;;;;;-3.76;73.05;100103.72;1761172;80;22626;-51
2022/01/23 08:50:32;;;;;;;16.43;7.60;;;;;;;-3.76;73.06;100112.92;1760893;80;21030;-49
2022/01/23 08:52:59;;;;;;;23.47;9.77;;;;;;;-3.80;73.18;100115.92;1759312;80;22429;-50
2022/01/23 08:55:25;;;;;;;25.83;9.13;;;;;;;-3.81;73.22;100112.41;1729670;80;21519;-50
2022/01/23 08:57:52;;;;;;;27.63;11.67;;;;;;;-3.85;73.27;100117.61;1761217;80;21022;-50
2022/01/23 09:00:19;;;;;;;19.47;9.83;;;;;;;-3.92;73.54;100125.84;1758888;80;22116;-50
2022/01/23 09:02:46;;;;;;;25.30;10.47;;;;;;;-3.91;73.72;100126.70;1756163;80;21106;-50
2022/01/23 09:05:12;;;;;;;18.63;9.47;;;;;;;-3.86;73.90;100121.10;1758757;80;21600;-50
2022/01/23 09:07:39;;;;;;;19.33;8.87;;;;;;;-3.77;73.93;100124.30;1760144;80;21485;-50
2022/01/23 09:10:06;;;;;;;12.80;7.30;;;;;;;-3.73;73.83;100115.58;1756846;80;21595;-51
2022/01/23 09:15:06;;;;;;;14.67;6.80;;;;;;;-3.64;73.65;100123.17;1759877;80;21436;-51
2022/01/23 09:17:33;;;;;;;17.37;7.27;;;;;;;-3.61;73.62;100127.18;1763950;80;20942;-51
2022/01/23 09:20:00;;;;;;;12.47;6.37;;;;;;;-3.59;73.48;100123.26;1762076;80;21673;-51
2022/01/23 09:22:29;;;;;;;11.50;5.13;;;;;;;-3.60;73.44;100126.75;1757485;80;20915;-49
2022/01/23 09:25:00;;;;;;;10.67;4.83;;;;;;;-3.57;73.40;100130.72;1765678;80;20874;-50
2022/01/23 09:27:27;;;;;;;6.13;3.80;;;;;;;-3.53;73.35;100131.23;1761439;80;20912;-49
2022/01/23 09:29:55;;;;;;;9.73;5.43;;;;;;;-3.50;73.07;100140.06;1759868;80;20875;-49
2022/01/23 09:32:23;;;;;;;9.33;4.57;;;;;;;-3.46;73.06;100142.29;1755148;80;21076;-49
2022/01/23 09:34:51;;;;;;;7.27;4.17;;;;;;;-3.40;73.12;100137.10;1758996;80;21014;-50
2022/01/23 09:37:18;;;;;;;10.47;4.57;;;;;;;-3.32;72.79;100135.92;1761631;80;20848;-50
2022/01/23 09:39:51;;;;;;;10.23;5.57;;;;;;;-3.30;72.82;100137.69;1762622;80;21803;-50
2022/01/23 09:42:30;;;;;;;10.10;5.83;;;;;;;-3.27;72.73;100140.38;1760754;80;21005;-50
2022/01/23 09:44:58;;;;;;;10.80;3.83;;;;;;;-3.21;72.92;100142.19;1758475;80;21203;-50
2022/01/23 09:47:25;;;;;;;6.87;3.53;;;;;;;-3.14;72.22;100138.33;1761149;80;22236;-51
2022/01/23 09:49:52;;;;;;;5.17;2.47;;;;;;;-3.15;72.45;100140.51;1759989;80;21046;-50
2022/01/23 09:52:19;;;;;;;10.10;2.67;;;;;;;-3.18;72.32;100138.29;1762316;80;21042;-51
2022/01/23 09:54:55;;;;;;;7.20;3.30;;;;;;;-3.20;72.39;100148.80;1759783;80;20923;-51
2022/01/23 09:57:15;;;;;;;6.03;3.20;;;;;;;-3.16;72.21;100145.35;1757452;80;22607;-50
2022/01/23 09:59:42;;;;;;;6.17;1.87;;;;;;;-3.08;72.21;100152.91;1754120;80;22569;-50
2022/01/23 10:02:08;;;;;;;8.67;3.47;;;;;;;-2.99;71.71;100155.21;1740046;80;21042;-51
2022/01/23 10:04:35;;;;;;;6.87;3.90;;;;;;;-2.99;71.74;100156.09;1760709;80;21069;-50
2022/01/23 10:07:05;;;;;;;5.57;2.13;;;;;;;-2.93;71.72;100152.64;1759431;80;21349;-51
2022/01/23 10:09:32;;;;;;;5.50;2.30;;;;;;;-2.90;71.33;100156.22;1752065;80;21129;-51
2022/01/23 10:11:58;;;;;;;6.47;2.43;;;;;;;-2.90;71.13;100150.06;1744918;80;21101;-51
2022/01/23 10:14:24;;;;;;;8.57;3.03;;;;;;;-2.87;71.21;100143.48;1748362;80;21141;-51
2022/01/23 10:16:51;;;;;;;5.90;3.40;;;;;;;-2.85;70.85;100154.94;1745016;80;21160;-50
2022/01/23 10:19:17;;;;;;;4.77;1.93;;;;;;;-2.90;70.90;100157.53;1746471;80;21133;-51
2022/01/23 10:21:45;;;;;;;3.50;1.33;;;;;;;-2.86;71.22;100157.11;1745516;80;21125;-50
2022/01/23 10:24:12;;;;;;;3.27;1.40;;;;;;;-2.79;71.36;100166.85;1747227;80;21089;-51
2022/01/23 10:26:49;;;;;;;6.93;3.23;;;;;;;-2.71;71.35;100168.71;1744353;80;21053;-51
2022/01/23 10:29:21;;;;;;;7.37;3.30;;;;;;;-2.64;71.14;100181.98;1745489;80;20990;-51
2022/01/23 10:32:11;;;;;;;9.53;4.20;;;;;;;-2.59;71.66;100179.84;1702423;82;21077;-50
2022/01/23 10:34:58;;;;;;;6.30;2.60;;;;;;;-2.56;71.43;100181.63;1750594;80;22191;-50
2022/01/23 10:37:38;;;;;;;6.80;2.50;;;;;;;-2.53;71.53;100187.80;1744333;80;21456;-51
2022/01/23 10:40:13;;;;;;;7.40;3.70;;;;;;;-2.50;70.94;100192.23;1746359;80;21066;-51
2022/01/23 10:50:50;;;;;;;;;;;;;;;-2.50;70.78;100219.48;1744558;80;21117;-51
2022/01/23 10:53:16;;;;;;;7.17;2.37;;;;;;;-2.48;70.96;100220.82;1749258;80;20257;-50
2022/01/23 10:55:46;;;;;;;5.93;2.90;;;;;;;-2.48;70.74;100212.48;1744702;80;21013;-50
2022/01/23 10:58:21;;;;;;;7.90;3.07;;;;;;;-2.43;70.78;100213.41;1747819;80;21089;-51
2022/01/23 11:00:47;;;;;;;5.67;2.97;;;;;;;-2.39;70.85;100212.58;1751851;80;21200;-50
2022/01/23 11:03:19;;;;;;;8.47;4.17;;;;;;;-2.33;70.69;100219.23;1745373;80;21514;-50
2022/01/23 11:05:48;;;;;;;7.03;3.20;;;;;;;-2.30;70.70;100223.66;1747989;80;21447;-52
2022/01/23 11:08:31;;;;;;;5.63;2.83;;;;;;;-2.25;70.55;100222.38;1749022;80;21095;-50
2022/01/23 11:11:07;;;;;;;8.13;3.43;;;;;;;-2.20;70.37;100234.73;1746639;80;21141;-50
2022/01/23 11:19:28;;;;;;;4.10;2.00;;;;;;;-2.16;70.00;100233.91;1752564;80;21452;-50
2022/01/23 11:21:54;;;;;;;3.03;1.57;;;;;;;-2.17;69.41;100240.05;1749235;80;21065;-49
2022/01/23 11:24:21;;;;;;;4.20;2.23;;;;;;;-2.23;69.35;100250.98;1749118;80;21503;-50
2022/01/23 11:26:47;;;;;;;2.80;1.73;;;;;;;-2.27;69.08;100254.00;1752120;80;22122;-50
2022/01/23 11:29:17;;;;;;;3.10;1.23;;;;;;;-2.29;69.00;100264.95;1751437;80;21128;-50
2022/01/23 11:31:44;;;;;;;3.13;1.40;;;;;;;-2.24;68.70;100264.59;1750989;80;21045;-51
2022/01/23 11:34:13;;;;;;;3.57;1.60;;;;;;;-2.21;68.25;100275.63;1747837;80;21046;-50
2022/01/23 11:36:39;;;;;;;2.17;1.40;;;;;;;-2.20;68.29;100282.64;1756400;80;21511;-51
2022/01/23 11:39:14;;;;;;;4.90;1.70;;;;;;;-2.21;68.15;100278.26;1752318;80;21590;-50
2022/01/23 11:56:36;;;;;;;6.53;1.90;;;;;;;-2.15;68.46;100311.28;1748699;80;21144;-51
2022/01/23 11:59:27;;;;;;;4.63;2.03;;;;;;;-2.11;68.25;100313.08;1742214;80;21085;-51
2022/01/23 12:02:20;;;;;;;6.57;3.00;;;;;;;-2.17;67.96;100307.30;1752561;80;21030;-51
2022/01/23 12:04:45;;;;;;;7.40;3.10;;;;;;;-2.22;68.18;100314.72;1756206;80;20947;-50
2022/01/23 12:07:19;;;;;;;5.43;2.27;;;;;;;-2.30;68.38;100314.17;1730656;80;21123;-51
2022/01/23 12:10:20;;;;;;;6.40;3.00;;;;;;;-2.35;68.51;100318.95;1748548;80;20929;-51
2022/01/23 12:12:50;;;;;;;5.40;3.03;;;;;;;-2.36;68.76;100327.72;1742085;80;20928;-52
2022/01/23 12:18:22;;;;;;;9.30;2.73;;;;;;;-2.39;68.93;100344.41;1740367;80;20984;-50
2022/01/23 12:20:50;;;;;;;6.90;2.30;;;;;;;-2.40;68.84;100354.50;1747155;80;21337;-51
2022/01/23 12:25:16;;;;;;;4.37;1.60;;;;;;;-2.38;67.77;100355.37;1778541;79;26772;-52
2022/01/23 12:27:43;;;;;;;3.20;1.23;;;;;;;-2.43;67.61;100365.42;1769565;79;21175;-51
2022/01/23 12:30:30;;;;;;;4.07;1.67;;;;;;;-2.47;67.13;100367.15;1776329;78;21661;-52
2022/01/23 12:33:26;;;;;;;2.87;1.70;;;;;;;-2.55;67.19;100374.49;1771262;79;21041;-51
2022/01/23 12:35:55;;;;;;;9.00;2.63;;;;;;;-2.60;67.36;100377.48;1777627;79;20895;-51
2022/01/23 12:38:32;;;;;;;7.97;4.50;;;;;;;-2.65;67.07;100391.92;1780176;79;22150;-50
2022/01/23 12:41:23;;;;;;;8.40;4.10;;;;;;;-2.72;67.21;100402.77;1777698;79;20887;-50
2022/01/23 12:43:58;;;;;;;7.73;3.63;;;;;;;-2.76;67.15;100402.72;1776382;79;21103;-51
2022/01/23 12:46:30;;;;;;;4.10;2.20;;;;;;;-2.76;67.29;100407.98;1764670;79;20957;-50
2022/01/23 12:48:59;;;;;;;3.37;2.13;;;;;;;-2.76;67.57;100415.89;1768503;79;21602;-51
2022/01/23 12:51:32;;;;;;;3.03;1.50;;;;;;;-2.73;67.57;100410.69;1702763;82;21506;-50
2022/01/23 12:54:05;;;;;;;3.62;1.67;;;;;;;-2.70;67.59;100419.94;1706388;82;21144;-51
2022/01/23 12:56:42;;;;;;;5.63;1.70;;;;;;;-2.69;67.65;100419.08;1689674;81;21105;-51
2022/01/23 12:59:10;;;;;;;5.03;1.80;;;;;;;-2.71;67.67;100419.05;1675658;83;21133;-51
2022/01/23 13:01:37;;;;;;;3.60;1.67;;;;;;;-2.75;67.66;100430.41;1667274;83;21458;-51
2022/01/23 13:04:06;;;;;;;3.23;1.60;;;;;;;-2.75;67.60;100433.48;1725099;80;21109;-51
2022/01/23 13:06:44;;;;;;;3.80;1.80;;;;;;;-2.75;67.88;100433.05;1730596;81;21606;-52
2022/01/23 13:09:36;;;;;;;5.30;2.70;;;;;;;-2.70;68.02;100441.02;1729478;81;21883;-51
2022/01/23 13:12:10;;;;;;;3.17;1.73;;;;;;;-2.65;67.98;100439.36;1730117;80;20958;-51
2022/01/23 13:17:54;;;;;;;3.13;1.70;;;;;;;-2.66;67.86;100449.44;1698636;82;21065;-52
2022/01/23 13:30:03;;;;;;;3.70;1.73;;;;;;;-2.78;67.09;100471.63;1716248;81;21094;-51
2022/01/23 13:34:39;;;;;;;6.80;2.70;;;;;;;-2.79;67.30;100494.87;1718786;82;21055;-50
2022/01/23 13:37:14;;;;;;;6.90;2.97;;;;;;;-2.83;67.41;100496.59;1702976;81;21164;-50
2022/01/23 13:40:03;;;;;;;8.60;3.83;;;;;;;-2.87;67.64;100497.81;1724384;81;21014;-52
2022/01/23 14:00:02;;;;;;;5.90;1.90;;;;;;;-3.08;67.65;100550.58;1717856;82;20383;-51
2022/01/23 14:02:35;;;;;;;4.93;1.63;;;;;;;-3.15;67.92;100539.91;1683350;82;21061;-51
2022/01/23 14:05:22;;;;;;;4.57;1.53;;;;;;;-3.18;68.14;100552.58;1682586;82;21134;-49
2022/01/23 14:07:55;;;;;;;3.80;1.80;;;;;;;-3.19;68.18;100548.16;1718271;81;21097;-49
2022/01/23 14:10:30;;;;;;;5.87;2.33;;;;;;;-3.18;68.14;100555.63;1717798;81;21146;-51
2022/01/23 14:13:15;;;;;;;4.27;2.17;;;;;;;-3.16;68.15;100555.24;1712318;81;21089;-50
2022/01/23 14:15:51;;;;;;;5.17;2.33;;;;;;;-3.16;68.11;100558.77;1724986;82;21082;-51
2022/01/23 14:18:24;;;;;;;6.07;2.57;;;;;;;-3.17;68.28;100565.31;1720701;81;21155;-50
2022/01/23 14:21:01;;;;;;;2.90;1.33;;;;;;;-3.19;68.39;100567.91;1720574;81;21091;-52
2022/01/23 14:23:28;;;;;;;2.57;1.57;;;;;;;-3.22;68.30;100572.22;1722910;81;21178;-53
2022/01/23 14:26:00;;;;;;;3.57;1.73;;;;;;;-3.25;68.42;100570.86;1719086;81;21563;-53
2022/01/23 14:28:41;;;;;;;4.80;1.63;;;;;;;-3.29;68.62;100573.84;1684753;82;21064;-51
2022/01/23 14:31:20;;;;;;;5.00;1.83;;;;;;;-3.29;68.56;100572.95;1715449;81;21141;-52
2022/01/23 14:33:44;;;;;;;3.70;1.73;;;;;;;-3.33;68.72;100573.34;1722163;81;21054;-51
2022/01/23 14:36:17;;;;;;;6.97;3.43;;;;;;;-3.37;68.78;100578.06;1721022;81;21034;-51
2022/01/23 14:38:57;;;;;;;7.77;6.97;;;;;;;-3.39;68.80;100576.25;1703475;82;20978;-50
2022/01/23 14:41:25;;;;;;;10.20;9.20;;;;;;;-3.41;68.88;100589.41;1721149;81;21101;-52
2022/01/23 14:43:51;;;;;;;10.53;5.13;;;;;;;-3.41;68.78;100598.62;1716947;81;21977;-50
2022/01/23 14:46:18;;;;;;;4.43;2.63;;;;;;;-3.43;68.94;100602.95;1720137;81;21835;-50
2022/01/23 14:48:57;;;;;;;5.97;1.77;;;;;;;-3.46;69.03;100602.87;1718161;82;22248;-49
2022/01/23 14:51:24;;;;;;;4.47;1.83;;;;;;;-3.47;69.15;100603.30;1715362;81;21129;-49
2022/01/23 14:53:45;;;;;;;6.57;2.93;;;;;;;-3.46;69.34;100606.40;1715201;81;21133;-49
2022/01/23 14:56:12;;;;;;;6.17;2.57;;;;;;;-3.45;69.41;100612.55;1721744;81;21150;-49
2022/01/23 14:58:39;;;;;;;9.13;3.10;;;;;;;-3.46;69.64;100619.56;1721618;81;21340;-51
2022/01/23 15:01:10;;;;;;;4.00;2.73;;;;;;;-3.44;69.80;100623.13;1719304;81;21557;-50
2022/01/23 15:03:36;;;;;;;5.00;2.87;;;;;;;-3.43;69.90;100622.70;1724590;81;22236;-50
2022/01/23 15:06:03;;;;;;;8.27;4.50;;;;;;;-3.43;70.19;100622.70;1716092;81;21577;-50